Time;durP1;ratioP1;P1;durP2;ratioP2;P2;SDS_P1;SDS_P2;PMS_P1;PMS_P2;Temp;Humidity;BMP_temperature;BMP_pressure;BME280_temperature;BME280_humidity;BME280_pressure;Samples;Min_cycle;Max_cycle;Signal;HPM_P1;HPM_P2
2021/03/07 00:01:45;;;;;;;20.25;8.00;;;;;;;-2.28;56.85;100555.53;1793706;79;21163;-79
2021/03/07 00:04:22;;;;;;;28.25;11.33;;;;;;;-2.26;56.45;100552.25;1862502;75;27990;-78
2021/03/07 00:06:54;;;;;;;27.20;8.13;;;;;;;-2.25;55.96;100551.84;1784357;80;21192;-78
2021/03/07 00:09:21;;;;;;;24.35;9.05;;;;;;;-2.30;56.87;100558.00;1821511;78;21149;-77
2021/03/07 00:12:04;;;;;;;28.92;8.40;;;;;;;-2.26;57.33;100551.39;1807610;78;23423;-77
2021/03/07 00:14:51;;;;;;;23.55;9.35;;;;;;;-2.34;57.36;100551.00;1743197;82;21194;-78
2021/03/07 00:17:19;;;;;;;24.27;10.35;;;;;;;-2.35;57.03;100556.02;1745981;81;21843;-79
2021/03/07 00:19:56;;;;;;;20.72;8.00;;;;;;;-2.38;57.98;100548.23;1763469;81;21164;-79
2021/03/07 00:22:24;;;;;;;25.95;8.70;;;;;;;-2.42;56.80;100545.52;1803874;79;21161;-79
2021/03/07 00:24:52;;;;;;;28.52;9.38;;;;;;;-2.50;57.35;100542.99;1716831;82;21159;-79
2021/03/07 00:27:20;;;;;;;20.68;9.40;;;;;;;-2.67;57.09;100517.94;1756853;81;21185;-78
2021/03/07 00:29:47;;;;;;;22.32;9.40;;;;;;;-2.57;57.84;100533.69;1810641;79;21617;-78
2021/03/07 00:32:34;;;;;;;27.52;9.43;;;;;;;-2.58;57.71;100543.00;1720083;81;21571;-78
2021/03/07 00:35:05;;;;;;;35.73;10.93;;;;;;;-2.61;57.72;100533.92;1793201;79;21280;-77
2021/03/07 00:37:42;;;;;;;32.05;8.48;;;;;;;-2.62;57.58;100532.19;1721421;82;21858;-79
2021/03/07 00:40:11;;;;;;;26.52;7.62;;;;;;;-2.63;57.97;100525.33;1762480;81;21593;-78
2021/03/07 00:42:45;;;;;;;27.05;8.28;;;;;;;-2.66;57.26;100520.11;1769435;81;21173;-78
2021/03/07 00:45:19;;;;;;;31.95;8.50;;;;;;;-2.72;59.51;100515.57;1754202;81;21168;-78
2021/03/07 00:47:51;;;;;;;29.72;8.95;;;;;;;-2.72;58.23;100516.84;1766120;81;21326;-79
2021/03/07 00:50:23;;;;;;;28.45;9.55;;;;;;;-2.73;58.28;100516.35;1765367;81;21221;-79
2021/03/07 00:52:56;;;;;;;25.20;8.38;;;;;;;-2.78;61.51;100525.44;1733497;82;21153;-78
2021/03/07 00:55:25;;;;;;;31.27;10.40;;;;;;;-2.81;62.29;100518.91;1813800;78;21255;-78
2021/03/07 00:58:12;;;;;;;27.35;9.70;;;;;;;-2.89;62.08;100515.09;1706438;83;21173;-78
2021/03/07 01:00:41;;;;;;;30.27;8.65;;;;;;;-2.95;59.79;100519.88;1706560;83;21214;-79
2021/03/07 01:03:09;;;;;;;29.37;10.53;;;;;;;-3.07;59.20;100498.48;1708540;83;21208;-79
2021/03/07 01:05:49;;;;;;;26.48;9.98;;;;;;;-2.93;59.44;100515.73;1816559;77;23762;-78
2021/03/07 01:08:17;;;;;;;18.40;7.72;;;;;;;-3.15;59.19;100497.21;1810980;79;21709;-79
2021/03/07 01:10:45;;;;;;;23.05;7.37;;;;;;;-3.09;59.22;100512.38;1812211;78;21409;-79
2021/03/07 01:13:16;;;;;;;23.10;8.08;;;;;;;-3.12;60.08;100514.78;1726724;82;21162;-79
2021/03/07 01:15:45;;;;;;;22.15;7.05;;;;;;;-3.19;59.34;100502.53;1764567;81;21129;-82
2021/03/07 01:18:13;;;;;;;18.05;5.85;;;;;;;-3.24;59.04;100509.06;1788697;79;21140;-78
2021/03/07 01:20:43;;;;;;;14.65;5.47;;;;;;;-3.29;59.48;100504.11;1792006;79;21315;-79
2021/03/07 01:23:13;;;;;;;16.65;5.92;;;;;;;-3.33;59.13;100495.44;1816090;79;21740;-78
2021/03/07 01:25:43;;;;;;;16.95;6.92;;;;;;;-3.34;59.47;100491.16;1807454;79;21179;-79
2021/03/07 01:28:10;;;;;;;17.77;6.37;;;;;;;-3.38;59.76;100495.61;1746697;81;21153;-79
2021/03/07 01:30:43;;;;;;;18.12;7.25;;;;;;;-3.43;59.96;100494.08;1802447;79;21108;-79
2021/03/07 01:33:11;;;;;;;18.10;6.42;;;;;;;-3.47;60.21;100507.42;1769359;81;21602;-78
2021/03/07 01:35:39;;;;;;;21.35;6.80;;;;;;;-3.58;60.37;100488.19;1799370;79;21876;-78
2021/03/07 01:38:13;;;;;;;14.60;6.53;;;;;;;-3.54;61.65;100505.36;1796591;79;21286;-79
2021/03/07 01:40:47;;;;;;;25.48;7.55;;;;;;;-3.61;62.63;100494.37;1795962;79;21149;-80
2021/03/07 01:43:17;;;;;;;23.87;8.28;;;;;;;-3.61;61.98;100503.27;1789500;79;21190;-79
2021/03/07 01:45:46;;;;;;;26.35;7.80;;;;;;;-3.61;61.95;100499.45;1795072;79;21318;-79
2021/03/07 01:48:15;;;;;;;20.52;7.35;;;;;;;-3.62;61.84;100496.04;1746649;82;22420;-78
2021/03/07 01:50:47;;;;;;;21.07;8.25;;;;;;;-3.62;60.40;100498.59;1736834;82;21173;-78
2021/03/07 01:53:18;;;;;;;28.30;9.50;;;;;;;-3.64;62.23;100496.36;1804643;79;21172;-79
2021/03/07 01:55:46;;;;;;;37.58;11.78;;;;;;;-3.67;62.19;100496.58;1800684;79;21176;-77
2021/03/07 01:58:36;;;;;;;29.90;9.60;;;;;;;-3.71;61.59;100492.98;1814237;78;21613;-77
2021/03/07 02:01:23;;;;;;;24.65;8.35;;;;;;;-3.74;61.31;100489.41;1733281;81;21182;-78
2021/03/07 02:03:53;;;;;;;27.20;8.90;;;;;;;-3.72;61.83;100489.09;1792060;79;21203;-78
2021/03/07 02:06:22;;;;;;;31.07;9.83;;;;;;;-3.72;64.32;100484.91;1803392;79;21274;-79
2021/03/07 02:08:51;;;;;;;23.90;9.03;;;;;;;-3.77;62.92;100487.58;1818599;79;21156;-78
2021/03/07 02:11:20;;;;;;;26.95;9.30;;;;;;;-3.78;61.46;100475.64;1743999;81;21181;-79
2021/03/07 02:13:48;;;;;;;25.10;8.55;;;;;;;-3.83;62.93;100475.81;1755791;81;21169;-79
2021/03/07 02:16:22;;;;;;;23.65;8.73;;;;;;;-3.85;62.06;100473.58;1738125;81;21209;-78
2021/03/07 02:18:52;;;;;;;38.17;12.15;;;;;;;-3.90;62.57;100470.80;1753521;81;21657;-78
2021/03/07 02:21:51;;;;;;;24.27;9.35;;;;;;;-3.92;61.82;100467.67;1747562;81;21181;-78
2021/03/07 02:24:19;;;;;;;35.90;10.48;;;;;;;-3.97;61.00;100466.16;1751755;81;21204;-78
2021/03/07 02:26:54;;;;;;;26.95;8.95;;;;;;;-4.09;61.06;100451.52;1765388;81;21641;-79
2021/03/07 02:29:23;;;;;;;29.18;8.18;;;;;;;-4.08;62.18;100468.13;1747045;81;21173;-79
2021/03/07 02:31:57;;;;;;;31.00;8.80;;;;;;;-4.12;63.55;100461.49;1739292;81;21182;-79
2021/03/07 02:34:39;;;;;;;25.17;8.20;;;;;;;-4.15;64.11;100461.34;1770137;81;21180;-79
2021/03/07 02:37:09;;;;;;;18.77;8.48;;;;;;;-4.15;64.11;100461.34;1755671;81;21194;-77
2021/03/07 02:39:42;;;;;;;22.65;8.58;;;;;;;-4.15;65.62;100465.16;1738063;81;21597;-78
2021/03/07 02:42:41;;;;;;;20.55;8.33;;;;;;;-4.14;65.03;100458.00;1764615;81;21160;-79
2021/03/07 02:45:14;;;;;;;23.38;8.73;;;;;;;-4.14;65.03;100458.00;1692474;84;21699;-79
2021/03/07 02:47:46;;;;;;;21.50;8.50;;;;;;;-4.18;65.18;100449.73;1674959;84;21632;-79
2021/03/07 02:50:25;;;;;;;22.52;7.90;;;;;;;-4.17;66.29;100450.22;1671607;84;21204;-78
2021/03/07 02:53:03;;;;;;;21.10;8.65;;;;;;;-4.17;66.29;100450.22;1680093;85;21475;-78
2021/03/07 02:55:35;;;;;;;26.70;8.98;;;;;;;-4.12;64.32;100448.80;1679812;84;21204;-78
2021/03/07 02:58:11;;;;;;;27.02;9.25;;;;;;;-4.13;64.86;100441.58;1674987;84;21220;-78
2021/03/07 03:03:29;;;;;;;22.37;7.85;;;;;;;-4.11;65.63;100433.64;1817749;78;22924;-79
2021/03/07 03:06:00;;;;;;;22.42;8.98;;;;;;;-4.18;64.79;100432.81;1787022;79;21183;-79
2021/03/07 03:08:30;;;;;;;29.90;9.68;;;;;;;-4.20;64.96;100437.84;1800166;79;21715;-78
2021/03/07 03:11:09;;;;;;;31.05;8.45;;;;;;;-4.14;64.41;100431.33;1799051;79;22228;-77
2021/03/07 03:13:42;;;;;;;21.85;8.35;;;;;;;-4.24;64.37;100438.45;1664863;80;21316;-77
2021/03/07 03:16:11;;;;;;;24.23;7.47;;;;;;;-4.30;66.51;100438.48;1767767;79;21176;-78
2021/03/07 03:18:49;;;;;;;21.77;8.55;;;;;;;-4.35;65.19;100430.63;1812905;79;21181;-78
2021/03/07 03:21:17;;;;;;;20.10;7.62;;;;;;;-4.38;64.72;100439.33;1791206;79;21152;-78
2021/03/07 03:23:47;;;;;;;25.43;8.38;;;;;;;-4.47;64.21;100438.42;1794187;79;21307;-78
2021/03/07 03:26:19;;;;;;;28.70;9.48;;;;;;;-4.47;64.21;100438.42;1794901;78;21150;-78
2021/03/07 03:28:48;;;;;;;23.07;9.00;;;;;;;-4.54;66.03;100441.39;1783634;80;22249;-77
2021/03/07 03:31:46;;;;;;;31.10;9.15;;;;;;;-4.70;67.87;100443.85;1789992;79;21166;-78
2021/03/07 03:34:14;;;;;;;27.55;10.08;;;;;;;-4.78;65.10;100433.26;1800991;78;21152;-77
2021/03/07 03:37:01;;;;;;;25.48;8.83;;;;;;;-4.78;65.10;100433.26;1788211;79;21169;-77
2021/03/07 03:39:29;;;;;;;37.00;11.35;;;;;;;-4.78;66.08;100437.46;1801204;79;21129;-78
2021/03/07 03:42:02;;;;;;;26.97;9.35;;;;;;;-4.80;65.13;100443.71;1789550;79;21144;-78
2021/03/07 03:44:39;;;;;;;27.07;8.68;;;;;;;-4.78;66.41;100451.02;1775741;80;21164;-79
2021/03/07 03:47:17;;;;;;;23.22;8.68;;;;;;;-4.81;64.74;100439.44;1815503;76;23210;-78
2021/03/07 03:49:57;;;;;;;20.82;7.85;;;;;;;-4.81;64.74;100439.44;1777597;79;21160;-78
2021/03/07 03:52:27;;;;;;;22.70;9.18;;;;;;;-4.83;64.44;100439.34;1787224;79;21140;-79
2021/03/07 03:55:27;;;;;;;27.55;8.73;;;;;;;-4.89;64.98;100429.25;1776484;77;21160;-79
2021/03/07 03:58:07;;;;;;;22.10;9.10;;;;;;;-4.82;64.98;100433.87;1817747;78;22917;-79
2021/03/07 04:00:41;;;;;;;26.48;8.78;;;;;;;-4.89;66.07;100430.52;1791437;79;21153;-78
2021/03/07 04:03:14;;;;;;;24.40;8.65;;;;;;;-4.97;68.39;100417.75;1731230;82;21621;-79
2021/03/07 04:06:00;;;;;;;27.50;8.35;;;;;;;-4.94;70.19;100425.55;1760911;81;21149;-78
2021/03/07 04:08:28;;;;;;;17.12;8.20;;;;;;;-4.98;68.78;100429.56;1746379;81;21210;-79
2021/03/07 04:10:57;;;;;;;25.48;9.00;;;;;;;-5.00;68.74;100423.13;1812703;78;21679;-77
2021/03/07 04:13:28;;;;;;;35.65;11.50;;;;;;;-5.00;68.21;100425.66;1806291;79;21157;-80
2021/03/07 04:15:57;;;;;;;23.62;9.40;;;;;;;-5.00;68.21;100425.66;1809032;79;21194;-78
2021/03/07 04:18:36;;;;;;;29.82;10.48;;;;;;;-4.97;68.27;100426.26;1800692;79;22155;-78
2021/03/07 04:21:04;;;;;;;24.95;10.43;;;;;;;-4.95;69.49;100430.13;1789671;79;21160;-78
2021/03/07 04:23:34;;;;;;;26.60;8.88;;;;;;;-4.97;70.45;100431.33;1669276;85;21288;-77
2021/03/07 04:26:03;;;;;;;25.17;8.80;;;;;;;-4.97;70.45;100431.33;1687182;85;21717;-78
2021/03/07 04:28:31;;;;;;;20.48;7.78;;;;;;;-5.00;70.04;100432.00;1685026;85;21256;-77
2021/03/07 04:31:14;;;;;;;24.98;8.30;;;;;;;-4.97;70.15;100427.89;1767726;79;23141;-77
2021/03/07 04:34:02;;;;;;;21.17;6.62;;;;;;;-5.06;71.67;100426.58;1706973;82;22304;-78
2021/03/07 04:36:30;;;;;;;22.73;8.33;;;;;;;-5.13;69.30;100427.02;1729829;82;21185;-78
2021/03/07 04:39:17;;;;;;;15.88;7.53;;;;;;;-5.13;69.30;100427.02;1751361;82;21150;-78
2021/03/07 04:41:45;;;;;;;23.00;8.48;;;;;;;-5.15;69.84;100427.70;1734335;82;21177;-77
2021/03/07 04:44:13;;;;;;;27.52;9.13;;;;;;;-5.18;70.25;100422.46;1732684;82;21149;-78
2021/03/07 04:46:41;;;;;;;23.77;10.70;;;;;;;-5.18;70.37;100425.86;1683851;84;21208;-78
2021/03/07 04:49:09;;;;;;;31.05;9.93;;;;;;;-5.25;70.01;100419.97;1673283;84;21216;-76
2021/03/07 04:51:51;;;;;;;25.68;9.53;;;;;;;-5.30;71.12;100426.41;1695982;83;22042;-78
2021/03/07 04:54:18;;;;;;;32.48;10.08;;;;;;;-5.31;68.70;100423.01;1683141;84;21209;-78
2021/03/07 04:56:46;;;;;;;26.10;8.28;;;;;;;-5.34;69.70;100421.95;1692741;84;21214;-79
2021/03/07 04:59:15;;;;;;;17.55;8.15;;;;;;;-5.36;69.84;100427.31;1683334;84;21193;-78
2021/03/07 05:01:42;;;;;;;20.27;8.50;;;;;;;-5.37;70.56;100422.64;1684781;84;21166;-78
2021/03/07 05:04:10;;;;;;;22.77;9.95;;;;;;;-5.38;68.75;100426.34;1695098;84;21193;-77
2021/03/07 05:06:51;;;;;;;20.60;7.92;;;;;;;-5.36;69.75;100419.31;1820213;76;23073;-79
2021/03/07 05:09:23;;;;;;;27.27;8.70;;;;;;;-5.46;68.39;100415.75;1783542;78;21137;-78
2021/03/07 05:11:51;;;;;;;23.98;8.93;;;;;;;-5.54;72.28;100412.75;1810517;78;21626;-79
2021/03/07 05:14:36;;;;;;;17.60;7.80;;;;;;;-5.48;71.33;100413.52;1817659;78;23394;-78
2021/03/07 05:17:04;;;;;;;23.07;8.90;;;;;;;-5.52;71.88;100420.45;1785761;79;21129;-78
2021/03/07 05:19:31;;;;;;;23.05;8.03;;;;;;;-5.50;69.67;100415.08;1745872;82;21161;-79
2021/03/07 05:22:08;;;;;;;23.05;9.08;;;;;;;-5.50;70.63;100408.34;1781386;80;21248;-77
2021/03/07 05:24:37;;;;;;;21.52;7.72;;;;;;;-5.50;70.63;100408.34;1762158;80;21215;-77
2021/03/07 05:29:42;;;;;;;19.90;7.95;;;;;;;-5.43;69.83;100397.80;1817533;78;22923;-78
2021/03/07 05:32:11;;;;;;;22.45;8.10;;;;;;;-5.48;71.64;100395.38;1805710;79;21152;-77
2021/03/07 05:34:39;;;;;;;21.15;7.35;;;;;;;-5.49;71.18;100401.24;1803859;78;21164;-78
2021/03/07 05:37:16;;;;;;;16.60;6.95;;;;;;;-5.52;72.47;100397.24;1806207;79;21143;-78
2021/03/07 05:39:44;;;;;;;18.30;7.10;;;;;;;-5.47;71.36;100395.88;1804064;79;21163;-77
2021/03/07 05:42:12;;;;;;;19.42;7.53;;;;;;;-5.51;71.77;100382.53;1802897;79;21176;-79
2021/03/07 05:44:41;;;;;;;20.15;8.40;;;;;;;-5.46;72.13;100388.73;1766559;79;21178;-77
2021/03/07 05:47:09;;;;;;;23.20;8.28;;;;;;;-5.38;72.09;100392.13;1812041;79;21843;-78
2021/03/07 05:49:44;;;;;;;14.90;6.62;;;;;;;-5.44;72.13;100375.76;1789392;78;21147;-79
2021/03/07 05:52:12;;;;;;;22.00;7.28;;;;;;;-5.30;70.28;100393.45;1802924;79;22279;-78
2021/03/07 05:54:54;;;;;;;14.55;6.85;;;;;;;-5.26;71.69;100383.58;1726396;82;21225;-79
2021/03/07 05:57:24;;;;;;;22.55;7.85;;;;;;;-5.20;71.46;100380.53;1793650;79;21556;-78
2021/03/07 05:59:52;;;;;;;17.55;7.60;;;;;;;-5.32;72.29;100366.73;1746514;82;21471;-78
2021/03/07 06:02:40;;;;;;;16.70;6.90;;;;;;;-5.09;71.92;100391.28;1723608;82;21169;-78
2021/03/07 06:05:15;;;;;;;17.30;8.25;;;;;;;-5.03;70.36;100392.53;1788964;79;21130;-77
2021/03/07 06:07:44;;;;;;;16.48;6.50;;;;;;;-5.02;72.53;100390.86;1802578;79;21554;-77
2021/03/07 06:10:27;;;;;;;19.32;8.15;;;;;;;-4.90;69.86;100389.03;1784775;79;22314;-77
2021/03/07 06:15:51;;;;;;;18.75;7.85;;;;;;;-4.71;70.12;100373.20;1838537;76;23487;-79
2021/03/07 06:18:22;;;;;;;21.42;8.28;;;;;;;-4.71;70.12;100373.20;1727122;79;21693;-77
2021/03/07 06:20:53;;;;;;;16.12;7.30;;;;;;;-4.54;68.90;100369.45;1732959;82;21715;-79
2021/03/07 06:23:37;;;;;;;20.97;7.42;;;;;;;-4.54;68.90;100369.45;1748659;79;21719;-78
2021/03/07 06:26:11;;;;;;;16.90;7.25;;;;;;;-4.47;69.08;100365.22;1742821;82;21578;-79
2021/03/07 06:28:39;;;;;;;26.35;8.28;;;;;;;-4.34;68.60;100375.23;1721247;82;21254;-79
2021/03/07 06:31:29;;;;;;;24.52;7.65;;;;;;;-4.27;69.77;100371.39;1730449;82;21355;-79
2021/03/07 06:34:06;;;;;;;25.20;8.28;;;;;;;-4.11;68.97;100358.72;1815817;79;24309;-78
2021/03/07 06:37:03;;;;;;;14.75;6.95;;;;;;;-4.05;69.26;100365.39;1735528;82;21182;-79
2021/03/07 06:39:31;;;;;;;17.80;6.92;;;;;;;-3.96;69.22;100364.13;1737927;82;21352;-78
2021/03/07 06:42:04;;;;;;;19.25;8.23;;;;;;;-3.85;68.16;100351.20;1732448;82;21217;-78
2021/03/07 06:44:32;;;;;;;19.23;7.45;;;;;;;-3.66;67.70;100353.43;1734259;82;21807;-77
2021/03/07 06:47:12;;;;;;;15.98;6.42;;;;;;;-3.66;67.70;100353.43;1740730;82;21158;-78
2021/03/07 06:49:40;;;;;;;22.90;6.58;;;;;;;-3.53;67.51;100350.73;1731840;82;21324;-78
2021/03/07 06:52:19;;;;;;;21.73;8.00;;;;;;;-3.44;67.30;100324.93;1745240;82;21669;-79
2021/03/07 06:55:12;;;;;;;18.10;6.37;;;;;;;-3.24;67.07;100338.64;1818673;78;22898;-79
2021/03/07 06:57:45;;;;;;;20.37;8.15;;;;;;;-3.24;66.99;100325.93;1809234;79;21578;-79
2021/03/07 07:00:14;;;;;;;20.02;8.35;;;;;;;-3.03;67.31;100326.09;1805496;78;21160;-79
2021/03/07 07:03:13;;;;;;;17.70;7.67;;;;;;;-3.03;67.31;100326.09;1799459;79;21168;-78
2021/03/07 07:05:46;;;;;;;20.88;6.60;;;;;;;-2.88;67.13;100334.89;1787835;79;21605;-78
2021/03/07 07:08:19;;;;;;;18.92;8.13;;;;;;;-2.77;66.77;100334.99;1802006;78;21303;-79
2021/03/07 07:10:55;;;;;;;15.32;6.25;;;;;;;-2.67;66.41;100324.45;1808434;79;21165;-78
2021/03/07 07:13:26;;;;;;;18.90;7.60;;;;;;;-2.57;65.36;100318.13;1747038;82;21209;-78
2021/03/07 07:16:14;;;;;;;19.40;7.17;;;;;;;-2.45;64.58;100309.81;1750441;81;21311;-80
2021/03/07 07:18:45;;;;;;;15.88;7.05;;;;;;;-2.33;64.93;100312.43;1768359;81;21327;-79
2021/03/07 07:21:22;;;;;;;19.55;6.53;;;;;;;-2.18;64.29;100315.69;1759101;81;21176;-78
2021/03/07 07:23:50;;;;;;;20.72;7.25;;;;;;;-2.07;63.81;100314.51;1756200;81;21190;-80
2021/03/07 07:26:18;;;;;;;15.53;6.28;;;;;;;-1.91;63.16;100315.17;1761691;81;21648;-78
2021/03/07 07:28:46;;;;;;;14.85;6.55;;;;;;;-1.77;62.01;100314.13;1770311;81;21303;-80
2021/03/07 07:31:45;;;;;;;15.32;6.47;;;;;;;-1.65;61.67;100313.38;1764519;81;21302;-79
2021/03/07 07:34:40;;;;;;;15.83;5.92;;;;;;;-1.53;59.61;100307.05;1751207;81;21185;-78
2021/03/07 07:37:15;;;;;;;13.22;6.10;;;;;;;-1.40;60.70;100306.77;1800773;79;21283;-80
2021/03/07 07:39:46;;;;;;;11.25;5.53;;;;;;;-1.24;60.92;100305.73;1792646;80;21145;-79
2021/03/07 07:42:31;;;;;;;17.85;5.40;;;;;;;-1.13;60.14;100295.58;1780291;79;21272;-79
2021/03/07 07:45:20;;;;;;;14.68;5.28;;;;;;;-0.98;59.59;100287.66;1789205;79;21939;-79
2021/03/07 07:47:51;;;;;;;17.02;6.75;;;;;;;-0.89;59.34;100279.52;1810707;79;21582;-79
2021/03/07 07:50:34;;;;;;;17.52;6.00;;;;;;;-0.68;59.16;100284.58;1820716;75;23022;-78
2021/03/07 07:53:15;;;;;;;14.30;5.80;;;;;;;-0.66;58.35;100276.19;1816017;79;21140;-79
2021/03/07 07:55:52;;;;;;;14.13;5.72;;;;;;;-0.52;58.57;100270.30;1807026;79;21644;-79
2021/03/07 07:58:40;;;;;;;11.65;5.15;;;;;;;-0.36;57.98;100267.06;1789031;79;21305;-78
2021/03/07 08:03:51;;;;;;;18.25;5.60;;;;;;;-0.06;57.36;100257.09;1797988;78;22961;-79
2021/03/07 08:06:31;;;;;;;15.83;5.70;;;;;;;0.00;56.97;100254.78;1800183;79;22233;-78
2021/03/07 08:08:59;;;;;;;15.50;5.30;;;;;;;0.15;55.20;100257.00;1803143;78;21112;-78
2021/03/07 08:11:46;;;;;;;13.08;5.22;;;;;;;0.23;54.04;100244.08;1804948;79;21172;-78
2021/03/07 08:14:19;;;;;;;13.28;5.45;;;;;;;0.36;53.87;100242.83;1745950;82;21185;-77
2021/03/07 08:16:47;;;;;;;10.10;4.72;;;;;;;0.45;54.44;100241.84;1734582;82;21184;-81
2021/03/07 08:19:19;;;;;;;14.43;5.75;;;;;;;0.55;52.73;100243.03;1803807;79;21156;-78
2021/03/07 08:22:05;;;;;;;13.25;5.22;;;;;;;0.64;52.56;100239.89;1800741;79;21189;-80
2021/03/07 08:24:56;;;;;;;12.05;5.03;;;;;;;0.74;53.03;100233.01;1732195;82;21172;-81
2021/03/07 08:27:37;;;;;;;11.25;5.40;;;;;;;0.85;51.23;100223.09;1714805;82;21172;-78
2021/03/07 08:30:17;;;;;;;14.03;4.08;;;;;;;1.03;51.01;100221.11;1797164;78;23306;-78
2021/03/07 08:32:53;;;;;;;12.98;4.65;;;;;;;1.13;51.18;100218.43;1806069;79;21508;-81
2021/03/07 08:35:25;;;;;;;13.55;4.70;;;;;;;1.28;51.50;100215.06;1799833;79;21279;-80
2021/03/07 08:38:15;;;;;;;11.10;4.15;;;;;;;1.43;50.23;100205.67;1806626;78;22916;-78
2021/03/07 08:40:57;;;;;;;9.55;3.92;;;;;;;1.50;48.15;100205.45;1740183;82;21173;-79
2021/03/07 08:43:31;;;;;;;7.53;3.40;;;;;;;1.62;49.51;100198.12;1740486;81;21169;-79
2021/03/07 08:46:42;;;;;;;11.90;4.87;;;;;;;1.79;49.60;100185.76;1811422;78;22903;-79
2021/03/07 08:49:18;;;;;;;7.28;3.42;;;;;;;1.83;46.85;100188.00;1794819;79;21734;-79
2021/03/07 08:51:49;;;;;;;14.18;3.85;;;;;;;1.90;46.82;100175.39;1802471;79;21293;-80
2021/03/07 08:54:30;;;;;;;8.75;3.95;;;;;;;2.05;46.84;100164.69;1809782;79;22930;-78
2021/03/07 08:57:04;;;;;;;7.90;3.45;;;;;;;2.12;45.76;100165.71;1800666;79;21167;-79
2021/03/07 08:59:34;;;;;;;9.38;3.42;;;;;;;2.19;44.07;100158.22;1728866;82;21135;-78
2021/03/07 09:02:14;;;;;;;8.78;3.87;;;;;;;2.27;45.01;100160.98;1738945;82;21287;-80
2021/03/07 09:04:44;;;;;;;9.60;3.67;;;;;;;2.37;43.03;100154.39;1728753;81;21599;-81
2021/03/07 09:07:12;;;;;;;12.05;4.08;;;;;;;2.46;45.45;100149.88;1761270;81;21163;-80
2021/03/07 09:09:44;;;;;;;9.43;4.28;;;;;;;2.55;44.95;100138.14;1769836;81;21299;-80
2021/03/07 09:12:16;;;;;;;14.90;3.27;;;;;;;2.67;44.40;100137.99;1766948;81;21186;-79
2021/03/07 09:14:48;;;;;;;7.58;3.85;;;;;;;2.78;45.09;100139.09;1732069;81;21184;-80
2021/03/07 09:17:22;;;;;;;9.58;3.80;;;;;;;2.91;42.23;100129.55;1764234;81;21184;-79
2021/03/07 09:20:10;;;;;;;9.83;3.50;;;;;;;3.05;42.02;100127.72;1745728;81;21189;-80
2021/03/07 09:22:38;;;;;;;7.10;3.02;;;;;;;3.18;40.87;100121.98;1764575;81;21166;-81
2021/03/07 09:25:15;;;;;;;8.05;3.20;;;;;;;3.27;42.74;100114.48;1760897;81;21169;-80
2021/03/07 09:27:43;;;;;;;12.95;3.25;;;;;;;3.36;38.14;100114.68;1740111;82;21601;-82
2021/03/07 09:30:29;;;;;;;7.20;2.55;;;;;;;3.45;38.07;100110.55;1792559;79;21137;-81
2021/03/07 09:32:57;;;;;;;9.30;2.80;;;;;;;3.55;40.78;100108.19;1798862;79;21154;-79
2021/03/07 09:35:34;;;;;;;6.62;2.67;;;;;;;3.63;39.20;100101.91;1814850;79;21149;-78
2021/03/07 09:38:06;;;;;;;10.13;3.33;;;;;;;3.70;38.73;100099.91;1735751;82;21953;-82
2021/03/07 09:40:46;;;;;;;9.65;3.08;;;;;;;3.86;39.26;100097.20;1816199;78;23091;-81
2021/03/07 09:43:24;;;;;;;8.38;2.87;;;;;;;3.85;37.54;100092.02;1795418;79;21138;-80
2021/03/07 09:45:52;;;;;;;6.75;2.67;;;;;;;3.86;35.42;100090.77;1788636;79;21776;-79
2021/03/07 09:48:34;;;;;;;6.72;3.33;;;;;;;3.97;37.30;100085.80;1809155;79;21272;-80
2021/03/07 09:51:05;;;;;;;5.22;2.58;;;;;;;4.03;35.38;100084.62;1784119;79;21154;-80
2021/03/07 09:53:38;;;;;;;7.15;3.22;;;;;;;4.13;37.34;100085.22;1723165;82;21179;-80
2021/03/07 09:56:08;;;;;;;8.58;3.20;;;;;;;4.16;35.24;100082.70;1744729;82;21323;-80
2021/03/07 09:58:38;;;;;;;5.25;2.60;;;;;;;4.22;36.12;100075.52;1766781;81;21217;-80
2021/03/07 10:01:12;;;;;;;7.25;3.50;;;;;;;4.31;35.39;100079.94;1740991;81;21157;-80
2021/03/07 10:03:40;;;;;;;6.62;2.72;;;;;;;4.36;35.57;100068.88;1729183;82;21182;-81
2021/03/07 10:06:19;;;;;;;9.53;3.50;;;;;;;4.48;37.38;100063.47;1743663;82;21200;-80
2021/03/07 10:09:04;;;;;;;7.15;3.10;;;;;;;4.58;36.61;100067.48;1768467;81;21205;-79
2021/03/07 10:11:32;;;;;;;9.18;2.67;;;;;;;4.70;35.52;100064.65;1751414;81;21189;-81
2021/03/07 10:14:05;;;;;;;6.65;3.45;;;;;;;4.79;35.77;100053.16;1725988;82;21165;-80
2021/03/07 10:16:36;;;;;;;5.30;2.58;;;;;;;4.83;34.40;100048.50;1742614;81;21173;-81
2021/03/07 10:19:12;;;;;;;7.58;3.70;;;;;;;4.92;36.71;100039.61;1797897;79;21495;-80
2021/03/07 10:21:42;;;;;;;8.50;3.33;;;;;;;5.06;36.05;100035.06;1797320;79;21183;-81
2021/03/07 10:24:19;;;;;;;6.75;3.10;;;;;;;5.18;36.58;100021.88;1808020;79;21299;-80
2021/03/07 10:27:09;;;;;;;9.35;3.75;;;;;;;5.23;34.45;100025.79;1801702;79;21307;-80
2021/03/07 10:29:48;;;;;;;7.95;3.45;;;;;;;5.29;33.30;100021.13;1774249;79;21714;-81
2021/03/07 10:32:19;;;;;;;6.15;2.75;;;;;;;5.40;34.70;100008.38;1809464;79;21277;-80
2021/03/07 10:34:54;;;;;;;7.72;3.33;;;;;;;5.54;34.89;100013.24;1790099;79;21148;-83
2021/03/07 10:37:38;;;;;;;9.18;3.65;;;;;;;5.69;35.07;99999.61;1790152;79;21649;-80
2021/03/07 10:40:12;;;;;;;7.53;3.33;;;;;;;5.82;33.14;99995.45;1806221;79;21218;-80
2021/03/07 10:42:43;;;;;;;6.90;3.40;;;;;;;5.95;35.17;99992.16;1805242;79;21192;-82
2021/03/07 10:45:22;;;;;;;6.30;2.83;;;;;;;6.00;34.06;99981.85;1772011;79;21181;-81
2021/03/07 10:48:11;;;;;;;7.58;3.12;;;;;;;6.02;31.99;99972.41;1799959;79;21134;-81
2021/03/07 10:50:48;;;;;;;5.72;3.15;;;;;;;6.17;33.72;99965.63;1805800;79;21598;-80
2021/03/07 10:53:18;;;;;;;10.50;3.30;;;;;;;6.39;35.19;99960.61;1796611;79;21694;-80
2021/03/07 10:55:52;;;;;;;10.40;3.30;;;;;;;6.51;31.94;99952.92;1799643;79;21106;-79
2021/03/07 10:58:23;;;;;;;8.00;3.55;;;;;;;6.68;32.16;99949.54;1772432;81;21698;-80
2021/03/07 11:00:51;;;;;;;7.03;3.25;;;;;;;6.82;31.65;99940.11;1767337;80;21184;-81
2021/03/07 11:03:21;;;;;;;6.20;2.95;;;;;;;6.88;31.51;99937.55;1704615;83;21289;-80
2021/03/07 11:05:49;;;;;;;8.10;3.05;;;;;;;6.86;32.75;99930.66;1765550;79;21150;-80
2021/03/07 11:08:17;;;;;;;10.78;4.60;;;;;;;7.00;31.42;99932.00;1809887;79;21169;-81
2021/03/07 11:10:45;;;;;;;13.90;5.80;;;;;;;7.01;31.42;99919.08;1799327;79;21156;-80
2021/03/07 11:13:13;;;;;;;8.20;3.33;;;;;;;7.16;32.38;99911.77;1777961;79;21210;-80
2021/03/07 11:15:40;;;;;;;7.92;3.10;;;;;;;7.03;30.28;99903.58;1790590;79;21611;-79
2021/03/07 11:18:08;;;;;;;6.08;3.22;;;;;;;6.99;29.45;99893.66;1775069;81;21178;-80
2021/03/07 11:20:36;;;;;;;7.03;3.20;;;;;;;7.16;30.05;99888.09;1744548;82;21170;-80
2021/03/07 11:23:04;;;;;;;6.87;3.08;;;;;;;7.26;28.73;99890.27;1762963;81;21633;-80
2021/03/07 11:25:33;;;;;;;7.15;3.33;;;;;;;7.31;29.22;99883.78;1743381;82;21177;-79
2021/03/07 11:28:01;;;;;;;7.70;3.20;;;;;;;7.34;29.23;99882.07;1762856;81;21191;-81
2021/03/07 11:30:29;;;;;;;8.73;3.60;;;;;;;7.44;29.69;99875.18;1791946;79;21158;-80
2021/03/07 11:32:57;;;;;;;9.40;3.77;;;;;;;7.60;31.10;99847.98;1783371;79;21126;-81
2021/03/07 11:35:31;;;;;;;8.13;3.52;;;;;;;7.87;30.85;99853.12;1802817;79;21629;-80
2021/03/07 11:37:59;;;;;;;6.75;3.25;;;;;;;8.06;30.98;99852.66;1804343;79;21687;-81
2021/03/07 11:40:31;;;;;;;6.25;2.90;;;;;;;8.19;30.02;99844.41;1787938;78;21157;-80
2021/03/07 11:43:18;;;;;;;8.18;3.85;;;;;;;8.31;28.11;99838.31;1822388;78;21308;-80
2021/03/07 11:45:46;;;;;;;6.90;3.20;;;;;;;8.58;28.86;99829.60;1807367;78;21158;-79
2021/03/07 11:48:14;;;;;;;7.97;3.67;;;;;;;8.87;26.87;99828.55;1832020;78;22277;-80
2021/03/07 11:50:47;;;;;;;7.92;3.27;;;;;;;9.18;25.93;99820.58;1829488;78;21735;-81
2021/03/07 11:53:14;;;;;;;6.33;2.95;;;;;;;9.85;26.16;99822.55;1761752;81;22285;-78
2021/03/07 11:55:44;;;;;;;10.98;3.40;;;;;;;10.48;26.46;99807.97;1759941;81;21205;-80
2021/03/07 11:58:25;;;;;;;9.43;3.27;;;;;;;11.01;23.64;99802.44;1895476;75;22906;-82
2021/03/07 12:01:02;;;;;;;6.47;3.37;;;;;;;11.28;22.73;99800.27;1859177;76;27913;-82
2021/03/07 12:03:48;;;;;;;6.50;3.15;;;;;;;11.81;22.92;99796.30;1784015;78;21169;-78
2021/03/07 12:06:16;;;;;;;6.17;2.90;;;;;;;12.01;22.05;99779.86;1773174;80;21135;-78